Time;durP1;ratioP1;P1;durP2;ratioP2;P2;SDS_P1;SDS_P2;PMS_P1;PMS_P2;Temp;Humidity;BMP_temperature;BMP_pressure;BME280_temperature;BME280_humidity;BME280_pressure;Samples;Min_cycle;Max_cycle;Signal;HPM_P1;HPM_P2
2023/09/01 00:00:24;;;;;;;2.30;0.95;;;;;;;;;;5016071;28;20045;-77
2023/09/01 00:02:51;;;;;;;2.53;0.88;;;9.60;99.90;;;;;;4999848;28;20899;-80
2023/09/01 00:05:17;;;;;;;3.72;1.10;;;;;;;;;;5016539;28;20061;-78
2023/09/01 00:07:43;;;;;;;2.65;0.82;;;;;;;;;;5016934;28;20045;-80
2023/09/01 00:10:09;;;;;;;5.15;1.25;;;;;;;;;;5000210;28;20144;-78
2023/09/01 00:12:35;;;;;;;2.67;1.05;;;;;;;;;;5016039;28;20160;-79
2023/09/01 00:15:03;;;;;;;3.88;1.17;;;;;;;;;;5016181;28;20060;-78
2023/09/01 00:17:29;;;;;;;5.47;1.33;;;;;;;;;;5016350;28;20767;-78
2023/09/01 00:19:55;;;;;;;7.43;1.45;;;;;;;;;;5047988;28;20059;-78
2023/09/01 00:22:21;;;;;;;4.28;1.10;;;;;;;;;;5015455;28;20057;-79
2023/09/01 00:24:47;;;;;;;5.43;1.35;;;;;;;;;;5015791;28;20119;-80
2023/09/01 00:27:13;;;;;;;4.13;1.08;;;;;;;;;;5048946;28;20045;-81
2023/09/01 00:29:39;;;;;;;5.30;1.13;;;;;;;;;;4999934;28;20049;-76
2023/09/01 00:32:06;;;;;;;6.10;1.13;;;9.60;99.90;;;;;;5011974;28;20092;-78
2023/09/01 00:34:32;;;;;;;7.28;1.20;;;;;;;;;;4998722;28;20859;-76
2023/09/01 00:36:58;;;;;;;4.13;1.00;;;;;;;;;;5014640;28;20045;-79
2023/09/01 00:39:24;;;;;;;5.20;1.30;;;;;;;;;;5014698;28;20195;-80
2023/09/01 00:41:50;;;;;;;2.60;0.90;;;;;;;;;;5014004;28;20045;-79
2023/09/01 00:44:16;;;;;;;5.40;1.33;;;;;;;;;;5014485;28;20065;-80
2023/09/01 00:46:43;;;;;;;3.45;0.93;;;;;;;;;;5047191;28;20832;-79
2023/09/01 00:49:10;;;;;;;4.22;1.30;;;;;;;;;;4993626;28;20037;-77
2023/09/01 00:51:36;;;;;;;5.90;1.00;;;;;;;;;;5012237;28;20196;-77
2023/09/01 00:54:03;;;;;;;6.78;1.33;;;;;;;;;;5048552;28;20824;-81
2023/09/01 00:56:29;;;;;;;4.72;0.93;;;;;;;;;;5014663;28;20086;-79
2023/09/01 00:58:55;;;;;;;5.47;1.00;;;;;;;;;;5048330;28;20079;-80
2023/09/01 01:01:22;;;;;;;5.93;1.48;;;;;;;;;;4998651;28;20060;-78
2023/09/01 01:03:51;;;;;;;5.80;1.63;;;9.50;99.90;;;;;;5048334;28;20061;-77
2023/09/01 01:06:52;;;;;;;3.50;0.90;;;9.40;99.90;;;;;;4998861;28;20106;-80
2023/09/01 01:09:18;;;;;;;4.43;1.08;;;;;;;;;;5047965;28;20049;-80
2023/09/01 01:12:02;;;;;;;5.65;1.08;;;9.40;99.90;;;;;;4998405;28;20054;-78
2023/09/01 01:14:36;;;;;;;3.75;1.25;;;9.60;99.90;;;;;;5015064;28;20056;-78
2023/09/01 01:17:05;;;;;;;4.93;1.40;;;;;;;;;;4995866;28;20053;-81
2023/09/01 01:19:37;;;;;;;4.75;1.42;;;9.30;99.90;;;;;;5002294;28;20152;-80
2023/09/01 01:22:05;;;;;;;2.95;1.05;;;9.20;99.90;;;;;;5012151;28;20061;-80
2023/09/01 01:24:33;;;;;;;2.70;1.48;;;;;;;;;;4997798;28;20041;-79
2023/09/01 01:26:59;;;;;;;7.40;1.30;;;;;;;;;;4997711;28;20053;-77
2023/09/01 01:29:26;;;;;;;5.97;1.30;;;;;;;;;;5014323;28;20079;-79
2023/09/01 01:31:53;;;;;;;3.20;1.25;;;9.10;99.90;;;;;;5045788;28;20049;-78
2023/09/01 01:34:35;;;;;;;3.78;1.25;;;9.10;99.90;;;;;;5012732;28;20119;-77
2023/09/01 01:37:13;;;;;;;5.75;1.40;;;12.70;99.90;;;;;;5041100;28;20753;-79
2023/09/01 01:39:42;;;;;;;4.60;1.20;;;9.00;99.90;;;;;;4997306;28;20514;-78
2023/09/01 01:42:16;;;;;;;2.65;1.02;;;9.00;99.90;;;;;;5013960;28;20576;-79
2023/09/01 01:44:50;;;;;;;3.25;1.42;;;8.90;99.90;;;;;;5013618;28;20042;-78
2023/09/01 01:47:19;;;;;;;4.63;1.58;;;;;;;;;;5008589;28;20057;-76
2023/09/01 01:49:45;;;;;;;5.28;1.95;;;;;;;;;;4996178;28;20060;-79
2023/09/01 01:52:11;;;;;;;5.50;2.10;;;;;;;;;;5014775;28;20057;-79
2023/09/01 01:54:37;;;;;;;3.88;2.05;;;;;;;;;;5047467;28;20045;-79
2023/09/01 01:57:04;;;;;;;6.13;2.22;;;;;;;;;;4997357;28;20041;-80
2023/09/01 01:59:30;;;;;;;7.70;2.33;;;;;;;;;;5013379;28;20060;-79
2023/09/01 02:01:58;;;;;;;6.05;2.35;;;;;;;;;;5013282;28;20144;-80
2023/09/01 02:04:24;;;;;;;9.00;2.50;;;;;;;;;;4996479;28;20187;-79
2023/09/01 02:06:50;;;;;;;7.10;2.42;;;;;;;;;;5045724;28;20061;-80
2023/09/01 02:09:16;;;;;;;3.47;1.83;;;;;;;;;;4995771;28;20053;-81
2023/09/01 02:11:42;;;;;;;5.80;1.83;;;;;;;;;;4995652;28;20104;-80
2023/09/01 02:14:09;;;;;;;3.60;1.88;;;;;;;;;;5012897;28;20045;-80
2023/09/01 02:16:35;;;;;;;5.63;1.80;;;;;;;;;;4997255;28;20060;-78
2023/09/01 02:19:01;;;;;;;7.32;1.77;;;;;;;;;;5012450;28;20477;-78
2023/09/01 02:21:27;;;;;;;4.55;1.80;;;;;;;;;;5012666;28;20053;-77
2023/09/01 02:23:54;;;;;;;4.22;2.10;;;;;;;;;;5013176;28;20061;-80
2023/09/01 02:26:20;;;;;;;7.07;2.40;;;;;;;;;;5012234;28;20769;-80
2023/09/01 02:28:47;;;;;;;6.47;2.75;;;9.20;99.90;;;;;;5011338;28;20753;-78
2023/09/01 02:31:14;;;;;;;6.90;2.47;;;;;;;;;;5011822;28;20537;-77
2023/09/01 02:33:40;;;;;;;6.97;3.55;;;;;;;;;;5011882;28;20049;-78
2023/09/01 02:36:33;;;;;;;7.18;3.30;;;9.20;99.90;;;;;;4995133;28;20042;-81
2023/09/01 02:38:59;;;;;;;5.63;3.00;;;;;;;;;;5008457;28;20060;-80
2023/09/01 02:41:26;;;;;;;7.88;3.00;;;;;;;;;;5046223;28;20104;-81
2023/09/01 02:43:53;;;;;;;8.13;3.08;;;9.20;99.90;;;;;;4996498;28;20947;-77
2023/09/01 02:46:22;;;;;;;7.13;2.95;;;;;;;;;;4990856;28;20405;-81
2023/09/01 02:48:48;;;;;;;8.35;3.35;;;;;;;;;;4995206;28;20045;-78
2023/09/01 02:51:15;;;;;;;8.02;3.35;;;;;;;;;;4995802;28;20830;-81
2023/09/01 02:53:41;;;;;;;10.73;3.67;;;;;;;;;;5012632;28;20049;-79
2023/09/01 02:56:07;;;;;;;9.57;3.05;;;;;;;;;;4996431;28;20223;-78
2023/09/01 02:58:33;;;;;;;7.72;3.85;;;;;;;;;;5012704;28;20620;-79
2023/09/01 03:01:07;;;;;;;5.68;2.58;;;9.30;99.90;;;;;;5012982;28;20057;-80
2023/09/01 03:03:38;;;;;;;8.20;3.28;;;9.30;99.90;;;;;;5012772;28;20099;-80
2023/09/01 03:06:05;;;;;;;8.85;3.40;;;;;;;;;;5012814;28;20046;-80
2023/09/01 03:08:32;;;;;;;8.15;3.20;;;9.20;99.90;;;;;;4996558;28;20087;-79
2023/09/01 03:10:58;;;;;;;6.53;2.85;;;;;;;;;;5012649;28;20533;-79
2023/09/01 03:13:24;;;;;;;10.00;3.80;;;;;;;;;;5045958;28;20490;-79
2023/09/01 03:15:50;;;;;;;8.18;3.30;;;;;;;;;;4996847;28;20054;-77
2023/09/01 03:18:16;;;;;;;10.65;3.40;;;;;;;;;;5038503;28;20703;-80
2023/09/01 03:20:42;;;;;;;6.35;2.90;;;;;;;;;;5011447;28;20097;-77
2023/09/01 03:23:08;;;;;;;4.57;3.28;;;;;;;;;;5011196;28;20049;-79
2023/09/01 03:25:34;;;;;;;8.85;3.97;;;;;;;;;;4994687;28;20574;-79
2023/09/01 03:28:01;;;;;;;8.00;4.07;;;;;;;;;;5043998;28;20058;-79
2023/09/01 03:30:27;;;;;;;9.93;4.45;;;;;;;;;;5004756;28;20045;-77
2023/09/01 03:32:53;;;;;;;6.80;4.00;;;;;;;;;;4995238;28;20067;-77
2023/09/01 03:35:19;;;;;;;8.43;4.30;;;;;;;;;;5015400;28;20526;-79
2023/09/01 03:37:46;;;;;;;9.85;4.20;;;;;;;;;;5016182;28;20172;-78
2023/09/01 03:40:12;;;;;;;9.65;4.63;;;;;;;;;;5000280;28;20099;-80
2023/09/01 03:42:39;;;;;;;7.20;4.28;;;8.90;99.90;;;;;;4993909;28;20053;-78
2023/09/01 03:45:05;;;;;;;10.43;4.43;;;8.80;99.90;;;;;;5016392;28;20102;-78
2023/09/01 03:47:32;;;;;;;9.45;4.50;;;;;;;;;;4998485;28;20095;-79
2023/09/01 03:49:58;;;;;;;9.40;3.97;;;;;;;;;;5015924;28;20041;-79
2023/09/01 03:52:24;;;;;;;7.70;4.75;;;;;;;;;;4999692;28;20055;-78
2023/09/01 03:54:50;;;;;;;10.20;4.40;;;;;;;;;;4999357;28;20065;-78
2023/09/01 03:57:16;;;;;;;14.95;4.47;;;;;;;;;;5016513;28;20540;-79
2023/09/01 03:59:43;;;;;;;11.07;6.00;;;;;;;;;;5016742;28;20056;-78
2023/09/01 04:02:09;;;;;;;7.93;5.00;;;;;;;;;;5009076;28;20155;-78
2023/09/01 04:04:35;;;;;;;11.55;4.88;;;;;;;;;;5049780;28;20069;-78
2023/09/01 04:07:01;;;;;;;9.27;4.15;;;;;;;;;;5016799;28;20502;-79
2023/09/01 04:09:28;;;;;;;11.82;4.65;;;;;;;;;;5016794;28;20053;-79
2023/09/01 04:11:54;;;;;;;4.60;2.95;;;;;;;;;;5000012;28;20165;-79
2023/09/01 04:14:21;;;;;;;3.03;2.42;;;;;;;;;;5000145;28;20612;-79
2023/09/01 04:16:47;;;;;;;6.13;3.60;;;;;;;;;;5015404;28;20144;-79
2023/09/01 04:19:13;;;;;;;8.40;5.18;;;;;;;;;;5013270;28;20046;-78
2023/09/01 04:21:39;;;;;;;8.75;4.22;;;;;;;;;;5014500;28;20061;-79
2023/09/01 04:24:05;;;;;;;9.73;4.80;;;;;;;;;;5014666;28;20064;-78
2023/09/01 04:26:31;;;;;;;8.23;4.75;;;;;;;;;;4998494;28;20049;-79
2023/09/01 04:28:58;;;;;;;7.43;4.72;;;;;;;;;;5014529;28;20142;-78
2023/09/01 04:31:28;;;;;;;8.00;5.15;;;8.60;99.90;;;;;;4998455;28;20264;-78
2023/09/01 04:33:55;;;;;;;9.20;5.32;;;8.60;99.90;;;;;;4998675;28;20053;-77
2023/09/01 04:36:21;;;;;;;10.25;5.00;;;8.70;99.90;;;;;;5015349;28;20046;-79
2023/09/01 04:38:47;;;;;;;13.48;5.93;;;;;;;;;;5009768;28;20085;-78
2023/09/01 04:41:13;;;;;;;9.45;5.05;;;;;;;;;;4998723;28;20056;-78
2023/09/01 04:43:40;;;;;;;14.43;6.03;;;;;;;;;;4997773;28;20139;-79
2023/09/01 04:46:06;;;;;;;13.20;5.57;;;;;;;;;;4998433;28;20521;-80
2023/09/01 04:48:32;;;;;;;14.77;5.93;;;;;;;;;;4997337;28;20128;-79
2023/09/01 04:51:02;;;;;;;9.10;4.82;;;;;;;;;;5049345;28;20678;-78
2023/09/01 04:53:29;;;;;;;11.98;5.95;;;;;;;;;;5014959;28;20053;-78
2023/09/01 04:55:55;;;;;;;10.98;5.05;;;;;;;;;;5049087;28;20052;-79
2023/09/01 04:58:21;;;;;;;8.88;5.25;;;;;;;;;;5014901;28;20145;-79
2023/09/01 05:00:51;;;;;;;16.02;6.07;;;;;;;;;;5015787;28;20060;-78
2023/09/01 05:03:17;;;;;;;13.35;5.55;;;;;;;;;;5014665;28;20402;-79
2023/09/01 05:05:43;;;;;;;11.68;6.35;;;;;;;;;;4998684;28;20138;-79
2023/09/01 05:08:10;;;;;;;11.15;6.45;;;;;;;;;;4998764;28;20061;-79
2023/09/01 05:10:36;;;;;;;14.65;7.18;;;;;;;;;;4997805;28;20132;-78
2023/09/01 05:13:02;;;;;;;13.48;7.65;;;;;;;;;;4996849;28;20604;-78
2023/09/01 05:15:30;;;;;;;15.13;8.90;;;;;;;;;;4998464;28;20041;-78
2023/09/01 05:17:56;;;;;;;12.20;6.30;;;;;;;;;;4999138;28;20806;-80
2023/09/01 05:20:22;;;;;;;12.20;6.93;;;;;;;;;;4996883;28;20136;-79
2023/09/01 05:22:48;;;;;;;8.63;6.28;;;;;;;;;;5013072;28;20624;-77
2023/09/01 05:25:14;;;;;;;16.00;7.78;;;;;;;;;;4996544;28;20045;-78
2023/09/01 05:27:41;;;;;;;12.20;6.43;;;;;;;;;;4996766;28;20111;-77
2023/09/01 05:30:07;;;;;;;10.32;6.90;;;9.90;99.90;;;;;;4996544;28;20054;-77
2023/09/01 05:32:34;;;;;;;14.68;7.13;;;10.00;99.90;;;;;;5013251;28;20395;-77
2023/09/01 05:35:00;;;;;;;14.25;7.75;;;;;;;;;;5014753;28;20045;-78
2023/09/01 05:37:26;;;;;;;14.65;7.70;;;;;;;;;;5009262;28;20057;-77
2023/09/01 05:39:52;;;;;;;12.65;8.15;;;;;;;;;;5014960;28;20084;-77
2023/09/01 05:42:19;;;;;;;12.80;8.25;;;;;;;;;;4997400;28;20089;-78
2023/09/01 05:44:45;;;;;;;17.05;8.32;;;;;;;;;;4996803;28;20045;-78
2023/09/01 05:47:11;;;;;;;13.45;9.13;;;;;;;;;;4995735;28;20041;-77
2023/09/01 05:49:37;;;;;;;19.27;10.32;;;;;;;;;;5014197;28;20045;-78
2023/09/01 05:52:03;;;;;;;14.95;8.55;;;;;;;;;;4999065;28;20053;-79
2023/09/01 05:54:29;;;;;;;14.40;8.20;;;;;;;;;;5012356;28;20042;-78
2023/09/01 05:56:56;;;;;;;11.25;7.30;;;;;;;;;;4994878;28;20053;-78
2023/09/01 05:59:22;;;;;;;10.98;7.90;;;;;;;;;;4995329;28;20057;-78
2023/09/01 06:01:48;;;;;;;13.27;8.77;;;;;;;;;;4995878;28;20080;-78
2023/09/01 06:04:14;;;;;;;9.15;7.65;;;;;;;;;;4996193;28;20045;-78
2023/09/01 06:06:41;;;;;;;14.00;8.73;;;;;;;;;;4995934;28;20143;-77
2023/09/01 06:09:07;;;;;;;9.45;7.50;;;;;;;;;;4996477;28;20106;-77
2023/09/01 06:11:34;;;;;;;9.32;7.45;;;;;;;;;;4996363;28;20057;-78
2023/09/01 06:14:01;;;;;;;12.48;7.43;;;;;;;;;;5012888;28;20053;-78
2023/09/01 06:16:27;;;;;;;8.90;6.13;;;;;;;;;;5011323;28;20104;-78
2023/09/01 06:18:54;;;;;;;9.00;6.18;;;;;;;;;;4987670;28;20506;-77
2023/09/01 06:21:20;;;;;;;7.45;4.63;;;;;;;;;;5011569;28;20065;-78
2023/09/01 06:23:47;;;;;;;8.77;5.40;;;14.40;99.90;;;;;;5012531;28;20069;-78
2023/09/01 06:26:17;;;;;;;8.48;5.60;;;15.20;99.90;;;;;;4996368;28;20552;-77
2023/09/01 06:28:47;;;;;;;6.13;4.82;;;15.90;99.90;;;;;;4996629;28;20064;-80
2023/09/01 06:31:16;;;;;;;7.32;4.50;;;16.20;99.90;;;;;;4997166;28;20301;-78
2023/09/01 06:33:44;;;;;;;5.70;3.58;;;16.90;99.90;;;;;;5012338;28;20072;-78
2023/09/01 06:36:12;;;;;;;7.13;4.18;;;;;;;;;;5010593;28;20041;-78
2023/09/01 06:38:39;;;;;;;8.70;3.88;;;;;;;;;;4993628;28;20391;-80
2023/09/01 06:41:05;;;;;;;6.57;3.95;;;;;;;;;;4996765;28;20491;-80
2023/09/01 06:43:31;;;;;;;7.55;3.90;;;;;;;;;;5013085;28;20050;-80
2023/09/01 06:45:57;;;;;;;6.18;3.05;;;17.90;99.90;;;;;;5014264;28;20056;-79
2023/09/01 06:48:23;;;;;;;6.32;3.10;;;;;;;;;;5000608;28;20049;-78
2023/09/01 06:50:49;;;;;;;6.97;2.85;;;;;;;;;;5012258;28;20057;-81
2023/09/01 06:53:15;;;;;;;5.00;2.42;;;;;;;;;;4996245;28;20060;-82
2023/09/01 06:55:42;;;;;;;5.57;3.10;;;;;;;;;;4996594;28;20049;-79
2023/09/01 06:58:08;;;;;;;4.35;2.17;;;;;;;;;;5013337;28;20049;-79
2023/09/01 07:00:34;;;;;;;5.00;2.10;;;;;;;;;;5013920;28;20089;-78
2023/09/01 07:03:00;;;;;;;5.28;2.28;;;;;;;;;;5014231;28;20053;-78
2023/09/01 07:05:26;;;;;;;5.75;2.05;;;;;;;;;;4998920;28;20565;-82
2023/09/01 07:07:53;;;;;;;5.47;1.90;;;;;;;;;;5000087;28;20049;-81
2023/09/01 07:10:19;;;;;;;3.95;1.70;;;;;;;;;;4995898;28;20672;-82
2023/09/01 07:12:45;;;;;;;7.18;2.40;;;;;;;;;;5017114;28;20053;-79
2023/09/01 07:15:11;;;;;;;6.85;2.53;;;;;;;;;;5000103;28;20499;-79
2023/09/01 07:17:38;;;;;;;4.25;2.40;;;;;;;;;;5046799;28;20077;-79
2023/09/01 07:20:04;;;;;;;7.28;2.22;;;;;;;;;;5033011;28;20049;-80
2023/09/01 07:22:30;;;;;;;7.72;2.65;;;;;;;;;;4999097;28;20073;-78
2023/09/01 07:24:57;;;;;;;6.55;2.55;;;;;;;;;;5015466;28;20597;-78
2023/09/01 07:27:23;;;;;;;5.45;2.53;;;;;;;;;;5050584;28;20597;-78
2023/09/01 07:29:49;;;;;;;8.40;3.13;;;;;;;;;;5049371;28;20088;-78
2023/09/01 07:32:16;;;;;;;6.13;2.60;;;;;;;;;;5016538;28;20049;-78
2023/09/01 07:34:42;;;;;;;6.85;2.45;;;;;;;;;;5009497;28;20749;-77
2023/09/01 07:37:09;;;;;;;6.25;2.20;;;;;;;;;;5012925;28;20087;-77
2023/09/01 07:39:35;;;;;;;8.00;3.15;;;;;;;;;;5012296;28;20084;-79
2023/09/01 07:42:04;;;;;;;8.25;2.88;;;;;;;;;;5014593;28;20057;-79
2023/09/01 07:44:30;;;;;;;4.70;2.00;;;;;;;;;;4992127;28;20131;-80
2023/09/01 07:46:56;;;;;;;4.75;2.50;;;;;;;;;;5014766;28;20081;-77
2023/09/01 07:49:22;;;;;;;5.70;2.33;;;;;;;;;;5014053;28;20047;-80
2023/09/01 07:51:49;;;;;;;5.70;2.17;;;17.90;99.90;;;;;;5015084;28;20088;-78
2023/09/01 07:54:15;;;;;;;6.47;2.47;;;;;;;;;;5015717;28;20234;-78
2023/09/01 07:56:41;;;;;;;6.93;2.58;;;;;;;;;;5014791;28;20118;-77
2023/09/01 07:59:07;;;;;;;4.05;1.58;;;;;;;;;;5016633;28;20081;-80
2023/09/01 08:01:34;;;;;;;6.97;2.22;;;;;;;;;;5001377;28;20049;-81
2023/09/01 08:04:00;;;;;;;7.22;2.30;;;;;;;;;;5050800;28;20072;-79
2023/09/01 08:06:29;;;;;;;5.93;2.45;;;18.10;99.90;;;;;;5015666;28;20052;-78
2023/09/01 08:08:55;;;;;;;8.52;3.67;;;;;;;;;;5014596;28;20060;-80
2023/09/01 08:11:21;;;;;;;8.90;2.78;;;;;;;;;;5013387;28;20049;-79
2023/09/01 08:13:47;;;;;;;6.05;2.13;;;;;;;;;;5013397;28;20135;-80
2023/09/01 08:16:15;;;;;;;5.38;2.67;;;;;;;;;;5012324;28;20711;-79
2023/09/01 08:18:42;;;;;;;8.13;3.10;;;;;;;;;;5004523;28;20798;-78
2023/09/01 08:21:08;;;;;;;6.82;2.97;;;;;;;;;;5013787;28;20057;-80
2023/09/01 08:23:34;;;;;;;7.47;3.10;;;;;;;;;;5014076;28;20091;-78
2023/09/01 08:26:04;;;;;;;9.23;3.50;;;19.20;99.90;;;;;;5013411;28;20163;-78
2023/09/01 08:28:33;;;;;;;7.78;3.33;;;;;;;;;;4997900;28;20045;-78
2023/09/01 08:31:04;;;;;;;6.25;3.78;;;19.90;99.90;;;;;;5015338;28;20745;-78
2023/09/01 08:33:30;;;;;;;5.60;3.45;;;;;;;;;;5009796;28;20150;-80
2023/09/01 08:35:56;;;;;;;5.72;3.42;;;;;;;;;;4998130;28;20740;-78
2023/09/01 08:38:22;;;;;;;6.88;3.60;;;;;;;;;;5015278;28;20088;-79
2023/09/01 08:40:48;;;;;;;6.07;3.40;;;;;;;;;;5047886;28;20049;-75
2023/09/01 08:43:35;;;;;;;7.13;3.28;;;20.90;99.90;;;;;;5014605;28;20053;-81
2023/09/01 08:46:05;;;;;;;4.40;2.42;;;21.00;99.90;;;;;;5012190;28;20052;-78
2023/09/01 08:48:32;;;;;;;6.85;3.03;;;21.10;99.90;;;;;;5029201;28;20056;-78
2023/09/01 08:50:59;;;;;;;5.25;3.00;;;;;;;;;;5012890;28;20084;-79
2023/09/01 08:53:27;;;;;;;6.03;2.72;;;20.70;99.90;;;;;;5014887;28;20157;-78
2023/09/01 08:55:53;;;;;;;6.75;2.67;;;;;;;;;;5013837;28;20057;-77
2023/09/01 08:58:21;;;;;;;7.18;2.60;;;;;;;;;;5009445;28;20132;-78
2023/09/01 09:00:47;;;;;;;6.38;2.95;;;;;;;;;;5047301;28;20173;-78
2023/09/01 09:03:14;;;;;;;10.40;2.85;;;;;;;;;;5047056;28;20578;-80
2023/09/01 09:05:40;;;;;;;7.78;3.00;;;;;;;;;;4997546;28;20481;-77
2023/09/01 09:08:07;;;;;;;8.45;2.45;;;20.10;99.90;;;;;;5014664;28;20045;-78
2023/09/01 09:10:34;;;;;;;7.30;2.90;;;;;;;;;;5014469;28;20060;-76
2023/09/01 09:13:00;;;;;;;6.95;2.83;;;;;;;;;;5012951;28;20050;-80
2023/09/01 09:15:26;;;;;;;6.25;2.50;;;;;;;;;;5046655;28;20049;-77
2023/09/01 09:17:53;;;;;;;7.03;2.25;;;;;;;;;;5013649;28;20049;-76
2023/09/01 09:20:22;;;;;;;5.30;2.15;;;20.60;99.90;;;;;;5008538;28;20045;-77
2023/09/01 09:23:01;;;;;;;8.23;2.35;;;20.60;99.80;;;;;;5029969;28;20115;-76
2023/09/01 09:25:29;;;;;;;6.70;1.40;;;20.80;99.90;;;;;;5013461;28;20127;-77
2023/09/01 09:27:59;;;;;;;3.00;0.82;;;;;;;;;;4996620;28;20115;-77
2023/09/01 09:30:26;;;;;;;4.47;0.85;;;21.00;98.70;;;;;;5013424;28;20061;-80
2023/09/01 09:33:06;;;;;;;6.72;1.45;;;21.10;98.20;;;;;;4997691;28;20045;-77
2023/09/01 09:35:48;;;;;;;3.63;0.60;;;21.30;98.60;;;;;;5042260;28;20053;-77
2023/09/01 09:38:14;;;;;;;5.60;1.05;;;;;;;;;;5029779;28;20053;-73
2023/09/01 09:40:40;;;;;;;7.75;1.40;;;;;;;;;;5013923;28;20396;-81
2023/09/01 09:43:08;;;;;;;7.22;0.98;;;21.70;97.10;;;;;;4996722;28;20110;-77
2023/09/01 09:45:37;;;;;;;3.58;1.83;;;21.50;96.40;;;;;;5012156;28;20049;-76
2023/09/01 09:48:06;;;;;;;3.20;1.00;;;21.30;96.30;;;;;;5014546;28;20427;-76
2023/09/01 09:50:34;;;;;;;3.60;1.80;;;21.10;96.90;;;;;;5013037;28;20044;-74
2023/09/01 09:53:05;;;;;;;4.35;1.48;;;21.00;97.20;;;;;;4989765;28;20046;-76
2023/09/01 09:55:33;;;;;;;6.93;1.40;;;20.90;97.00;;;;;;5012989;28;20503;-75
2023/09/01 09:58:05;;;;;;;6.00;1.33;;;20.90;97.10;;;;;;5013694;28;20056;-75
2023/09/01 10:00:42;;;;;;;5.50;1.55;;;20.70;97.20;;;;;;5012994;28;20049;-76
2023/09/01 10:03:09;;;;;;;5.80;1.77;;;;;;;;;;5041878;28;20091;-77
2023/09/01 10:05:35;;;;;;;7.80;1.63;;;;;;;;;;5013268;28;20056;-77
2023/09/01 10:08:04;;;;;;;4.97;1.40;;;20.50;97.70;;;;;;5047360;28;20054;-78
2023/09/01 10:10:33;;;;;;;7.07;2.30;;;20.50;97.60;;;;;;5013133;28;20060;-75
2023/09/01 10:13:02;;;;;;;7.68;1.58;;;20.50;98.00;;;;;;5012459;28;20373;-75
2023/09/01 10:15:30;;;;;;;6.78;2.22;;;20.60;98.00;;;;;;5013765;28;20589;-78
2023/09/01 10:18:00;;;;;;;5.70;2.58;;;20.60;97.40;;;;;;5008729;28;20049;-76
2023/09/01 10:20:27;;;;;;;6.22;1.92;;;20.50;97.30;;;;;;5012833;28;20101;-76
2023/09/01 10:22:54;;;;;;;6.65;1.55;;;;;;;;;;5000471;28;20065;-76
2023/09/01 10:25:21;;;;;;;4.20;2.00;;;;;;;;;;4996205;28;20067;-75
2023/09/01 10:28:12;;;;;;;8.10;3.00;;;20.50;98.30;;;;;;5016080;28;20053;-76
2023/09/01 10:30:38;;;;;;;6.57;3.03;;;;;;;;;;5003787;28;20056;-75
2023/09/01 10:33:04;;;;;;;6.28;3.75;;;;;;;;;;4993560;28;20121;-76
2023/09/01 10:35:51;;;;;;;7.43;3.67;;;20.50;98.10;;;;;;5013001;28;20045;-75
2023/09/01 10:38:35;;;;;;;9.70;3.42;;;20.50;98.20;;;;;;5010313;28;20056;-75
2023/09/01 10:41:01;;;;;;;7.78;3.17;;;;;;;;;;4999248;28;20052;-76
2023/09/01 10:43:33;;;;;;;6.63;3.75;;;20.30;98.20;;;;;;4984250;28;20081;-75
2023/09/01 10:46:14;;;;;;;9.75;3.60;;;20.20;98.30;;;;;;4996796;28;20060;-75
2023/09/01 10:48:57;;;;;;;7.33;4.13;;;17.90;98.00;;;;;;4995151;28;20110;-75
2023/09/01 10:51:33;;;;;;;9.65;3.53;;;20.00;98.80;;;;;;4996702;28;20056;-75
2023/09/01 10:54:02;;;;;;;9.55;4.30;;;;;;;;;;4995640;28;20132;-74
2023/09/01 10:56:31;;;;;;;13.02;5.35;;;19.90;99.20;;;;;;4995745;28;20126;-74
2023/09/01 10:58:58;;;;;;;9.82;4.32;;;19.90;99.50;;;;;;4996149;28;21093;-74
2023/09/01 11:01:37;;;;;;;5.97;4.78;;;19.90;99.70;;;;;;4993756;28;20411;-74
2023/09/01 11:04:30;;;;;;;11.43;5.07;;;20.00;99.90;;;;;;5006737;28;20497;-75
2023/09/01 11:06:59;;;;;;;9.48;4.20;;;20.00;99.50;;;;;;4992988;28;20174;-75
2023/09/01 11:09:48;;;;;;;9.90;4.95;;;20.00;99.50;;;;;;4975402;28;20058;-77
2023/09/01 11:12:15;;;;;;;13.23;4.60;;;;;;;;;;4973150;28;20116;-75
2023/09/01 11:14:55;;;;;;;9.10;4.47;;;19.60;99.70;;;;;;4973652;28;20068;-75
2023/09/01 11:17:38;;;;;;;11.43;4.50;;;20.10;99.60;;;;;;4971117;28;20052;-75
2023/09/01 11:20:10;;;;;;;10.13;4.90;;;20.10;99.30;;;;;;4968872;28;20100;-75
2023/09/01 11:22:42;;;;;;;14.02;4.70;;;20.10;98.90;;;;;;4958226;28;20064;-75
2023/09/01 11:25:15;;;;;;;13.40;5.85;;;20.00;98.60;;;;;;4955518;28;20057;-75
2023/09/01 11:27:47;;;;;;;8.90;5.28;;;19.40;98.50;;;;;;4974762;28;20125;-74
2023/09/01 11:30:13;;;;;;;10.87;5.57;;;19.80;98.90;;;;;;4981939;28;20046;-75
2023/09/01 11:32:39;;;;;;;11.02;5.93;;;;;;;;;;4976937;28;20450;-76
2023/09/01 11:35:06;;;;;;;10.85;5.43;;;;;;;;;;4958304;28;20547;-74
2023/09/01 11:37:39;;;;;;;12.35;5.85;;;19.60;99.40;;;;;;4961865;28;20054;-76
2023/09/01 11:40:09;;;;;;;10.27;6.85;;;19.60;99.60;;;;;;4979060;28;20101;-74
2023/09/01 11:42:40;;;;;;;10.93;6.32;;;19.60;99.80;;;;;;4995880;28;20053;-76
2023/09/01 11:45:08;;;;;;;10.02;6.13;;;19.80;99.90;;;;;;4996449;28;20111;-75
2023/09/01 11:47:34;;;;;;;13.43;8.10;;;;;;;;;;4977799;28;20594;-73
2023/09/01 11:50:01;;;;;;;12.50;7.45;;;;;;;;;;4995477;28;20489;-74
2023/09/01 11:52:27;;;;;;;10.55;7.53;;;;;;;;;;4995866;28;20056;-75
2023/09/01 11:54:53;;;;;;;15.10;7.95;;;;;;;;;;4982228;28;20041;-74
2023/09/01 11:57:20;;;;;;;14.55;7.45;;;20.10;99.90;;;;;;4999651;28;20100;-76
2023/09/01 11:59:47;;;;;;;11.18;7.22;;;;;;;;;;5009978;28;20057;-78
2023/09/01 12:02:22;;;;;;;12.73;6.75;;;20.20;99.60;;;;;;5016370;28;20064;-75
2023/09/01 12:04:50;;;;;;;15.65;7.03;;;20.30;99.90;;;;;;4998964;28;20062;-75
2023/09/01 12:14:47;;;;;;;10.13;6.45;;;20.40;99.90;;;;;;5007699;28;20069;-76
2023/09/01 12:17:17;;;;;;;14.95;8.50;;;20.40;99.90;;;;;;4992147;28;20061;-76
2023/09/01 12:19:52;;;;;;;16.10;9.68;;;20.50;99.90;;;;;;5002533;28;20703;-75
2023/09/01 12:22:18;;;;;;;17.02;9.77;;;;;;;;;;4995686;28;20068;-76
2023/09/01 12:24:55;;;;;;;16.38;10.25;;;20.70;99.20;;;;;;5017521;28;20056;-75
2023/09/01 12:27:21;;;;;;;13.75;10.43;;;;;;;;;;5036160;28;20072;-76
2023/09/01 12:29:47;;;;;;;13.70;10.73;;;;;;;;;;5019743;28;20052;-74
2023/09/01 12:32:14;;;;;;;14.80;9.95;;;;;;;;;;5016929;28;20060;-74
2023/09/01 12:34:43;;;;;;;20.50;11.80;;;21.00;99.30;;;;;;5016127;28;20055;-73
2023/09/01 12:37:10;;;;;;;14.70;10.90;;;;;;;;;;5026888;28;20057;-75
2023/09/01 12:39:37;;;;;;;16.52;10.77;;;;;;;;;;5021123;28;20514;-74
2023/09/01 12:42:03;;;;;;;16.75;10.93;;;;;;;;;;5019970;28;20118;-78
2023/09/01 12:44:30;;;;;;;14.13;10.25;;;21.00;99.10;;;;;;5016639;28;20081;-74
2023/09/01 12:46:56;;;;;;;15.25;10.45;;;21.10;98.40;;;;;;5033264;28;20759;-74
2023/09/01 12:49:22;;;;;;;14.15;9.15;;;;;;;;;;5018104;28;20813;-77
2023/09/01 12:51:49;;;;;;;11.25;9.07;;;;;;;;;;5017329;28;20064;-75
2023/09/01 12:54:15;;;;;;;17.27;9.45;;;;;;;;;;5017468;28;20061;-74
2023/09/01 12:56:45;;;;;;;14.70;9.77;;;21.20;97.80;;;;;;5051589;28;20049;-74
2023/09/01 12:59:11;;;;;;;11.25;6.85;;;21.30;98.00;;;;;;5022644;28;20126;-74
2023/09/01 13:01:38;;;;;;;15.05;8.43;;;;;;;;;;5055652;28;20136;-75
2023/09/01 13:04:04;;;;;;;12.98;6.60;;;;;;;;;;5016709;28;20049;-77
2023/09/01 13:06:32;;;;;;;8.98;5.15;;;;;;;;;;5048640;28;20067;-76
2023/09/01 13:08:58;;;;;;;10.60;5.30;;;;;;;;;;5024453;28;20086;-76
2023/09/01 13:11:24;;;;;;;9.70;3.80;;;;;;;;;;5020618;28;20057;-74
2023/09/01 13:13:51;;;;;;;9.38;4.60;;;;;;;;;;5017820;28;20163;-76
2023/09/01 13:16:17;;;;;;;9.80;3.70;;;;;;;;;;5010461;28;20175;-76
2023/09/01 13:18:43;;;;;;;8.52;3.28;;;;;;;;;;4987911;28;20057;-75
2023/09/01 13:21:09;;;;;;;7.70;3.65;;;;;;;;;;5006142;28;20053;-76
2023/09/01 13:23:35;;;;;;;12.23;4.57;;;;;;;;;;4988462;28;20594;-76
2023/09/01 13:26:02;;;;;;;7.05;4.10;;;;;;;;;;5039201;28;20143;-75
2023/09/01 13:28:28;;;;;;;8.25;3.70;;;;;;;;;;4987890;28;20065;-77
2023/09/01 13:30:54;;;;;;;8.38;4.63;;;;;;;;;;5037411;28;20565;-76
2023/09/01 13:33:20;;;;;;;10.45;4.05;;;;;;;;;;4997666;28;20064;-76
2023/09/01 13:35:47;;;;;;;7.05;3.67;;;;;;;;;;5035290;28;20483;-76
2023/09/01 13:38:13;;;;;;;8.60;3.92;;;;;;;;;;4995572;28;20601;-77
2023/09/01 13:40:43;;;;;;;7.85;2.88;;;;;;;;;;4997055;28;20065;-74
2023/09/01 13:43:09;;;;;;;7.28;4.22;;;;;;;;;;4999618;28;20081;-74
2023/09/01 13:45:35;;;;;;;6.90;3.72;;;;;;;;;;5008708;28;20474;-77
2023/09/01 13:48:02;;;;;;;7.35;3.95;;;;;;;;;;4998288;28;20077;-75
2023/09/01 13:50:28;;;;;;;7.20;3.85;;;;;;;;;;4993128;28;20049;-77
2023/09/01 13:52:54;;;;;;;6.63;3.70;;;;;;;;;;5001535;28;20053;-75
2023/09/01 13:55:20;;;;;;;10.80;4.85;;;;;;;;;;5040140;28;20543;-77
2023/09/01 13:57:46;;;;;;;8.20;4.40;;;;;;;;;;5003381;28;20089;-78
2023/09/01 14:00:13;;;;;;;6.68;3.47;;;;;;;;;;5008033;28;20057;-77
2023/09/01 14:02:39;;;;;;;11.43;4.00;;;;;;;;;;5030263;28;20130;-76
2023/09/01 14:05:06;;;;;;;6.70;3.75;;;;;;;;;;4992256;28;20061;-76
2023/09/01 14:07:32;;;;;;;8.13;4.40;;;;;;;;;;5037337;28;20144;-74
2023/09/01 14:09:58;;;;;;;9.50;5.57;;;;;;;;;;5002864;28;20096;-76
2023/09/01 14:12:24;;;;;;;10.75;5.95;;;;;;;;;;5001336;28;20499;-73
2023/09/01 14:44:04;;;;;;;8.98;4.00;;;;;;;;;;5032458;22;20150;-76